Time;durP1;ratioP1;P1;durP2;ratioP2;P2;SDS_P1;SDS_P2;PMS_P1;PMS_P2;Temp;Humidity;BMP_temperature;BMP_pressure;BME280_temperature;BME280_humidity;BME280_pressure;Samples;Min_cycle;Max_cycle;Signal;HPM_P1;HPM_P2
2022/09/14 00:05:01;;;;;;;2.83;2.30;;;;;21.30;97932.00;;;;16576751;28;20619;-49
2022/09/14 00:13:04;;;;;;;4.30;2.93;;;;;21.40;97938.00;;;;16572556;28;20227;-49
2022/09/14 00:21:10;;;;;;;3.87;2.30;;;;;21.70;97938.00;;;;16580947;28;20743;-50
2022/09/14 00:29:12;;;;;;;2.60;2.40;;;;;21.80;97918.00;;;;16580343;28;20270;-50
2022/09/14 00:37:16;;;;;;;5.17;2.30;;;;;22.00;97889.00;;;;16573956;28;20226;-50
2022/09/14 00:45:20;;;;;;;3.20;2.70;;;;;22.60;97888.00;;;;16576816;28;20578;-50
2022/09/14 00:53:24;;;;;;;2.50;2.30;;;;;22.10;97886.00;;;;16578870;28;20233;-50
2022/09/14 01:01:27;;;;;;;2.90;2.70;;;;;22.70;97856.00;;;;16577456;28;20623;-49
2022/09/14 01:09:36;;;;;;;3.43;2.60;;;;;22.10;97861.00;;;;16576127;28;20322;-49
2022/09/14 01:17:43;;;;;;;2.50;2.27;;;;;22.80;97816.00;;;;16573973;28;20238;-50
2022/09/14 01:26:22;;;;;;;6.13;2.90;;;;;22.10;97864.00;;;;16575756;28;20207;-49
2022/09/14 01:34:31;;;;;;;9.40;4.50;;;;;22.40;97930.00;;;;16576131;28;20225;-48
2022/09/14 01:42:34;;;;;;;5.60;4.57;;;;;21.10;97941.00;;;;16575789;28;20598;-47
2022/09/14 01:50:41;;;;;;;8.40;5.03;;;;;21.00;97964.00;;;;16578129;28;20235;-48
2022/09/14 01:58:47;;;;;;;7.80;5.67;;;;;21.50;97967.00;;;;16583765;28;20216;-47
2022/09/14 02:06:50;;;;;;;7.50;5.73;;;;;21.10;97961.00;;;;16583684;28;20227;-47
2022/09/14 02:14:54;;;;;;;9.80;5.90;;;;;20.80;97951.00;;;;16582618;28;20231;-48
2022/09/14 02:22:58;;;;;;;12.67;7.40;;;;;20.90;97971.00;;;;16587705;28;20227;-48
2022/09/14 02:31:08;;;;;;;11.23;5.50;;;;;21.50;97953.00;;;;16588316;28;20237;-48
2022/09/14 02:39:22;;;;;;;5.87;5.27;;;;;21.60;97947.00;;;;16580651;28;21097;-47
2022/09/14 02:47:27;;;;;;;7.67;4.83;;;;;20.80;97950.00;;;;16588374;28;20231;-47
2022/09/14 02:55:35;;;;;;;7.50;4.30;;;;;20.60;97942.00;;;;16587731;28;20707;-47
2022/09/14 03:03:38;;;;;;;5.23;4.73;;;;;21.30;97920.00;;;;16586544;28;20272;-48
2022/09/14 03:11:42;;;;;;;7.40;5.00;;;;;21.20;97927.00;;;;16583313;28;20227;-49
2022/09/14 03:19:44;;;;;;;4.90;4.00;;;;;21.50;97920.00;;;;16582567;28;20227;-47
2022/09/14 03:27:50;;;;;;;6.93;4.70;;;;;21.10;97924.00;;;;16588322;28;20243;-46
2022/09/14 03:35:53;;;;;;;4.43;4.03;;;;;21.40;97901.00;;;;16586989;28;20213;-47
2022/09/14 03:43:56;;;;;;;9.97;4.63;;;;;21.70;97878.00;;;;16583319;28;20241;-48
2022/09/14 03:51:59;;;;;;;5.57;5.07;;;;;21.20;97863.00;;;;16581285;28;20227;-47
2022/09/14 04:00:05;;;;;;;6.13;5.57;;;;;21.50;97860.00;;;;16580469;28;20817;-48
2022/09/14 04:08:13;;;;;;;9.33;6.63;;;;;21.30;97848.00;;;;16574210;28;20327;-47
2022/09/14 04:16:19;;;;;;;7.83;7.10;;;;;21.50;97836.00;;;;16573116;28;20206;-48
2022/09/14 04:24:21;;;;;;;8.90;8.10;;;;;21.20;97832.00;;;;16582177;28;20221;-47
2022/09/14 04:32:25;;;;;;;8.70;7.90;;;;;21.20;97850.00;;;;16578770;28;20235;-47
2022/09/14 04:40:27;;;;;;;11.27;8.80;;;;;21.10;97845.00;;;;16575665;28;20235;-47
2022/09/14 04:48:33;;;;;;;13.57;9.50;;;;;20.90;97829.00;;;;16581121;28;20219;-47
2022/09/14 04:56:36;;;;;;;10.10;9.10;;;;;20.90;97818.00;;;;16567756;28;20206;-48
2022/09/14 05:04:41;;;;;;;11.20;9.23;;;;;20.90;97847.00;;;;16579238;28;20200;-48
2022/09/14 05:12:43;;;;;;;16.03;9.30;;;;;20.90;97830.00;;;;16579228;28;20652;-47
2022/09/14 05:20:47;;;;;;;10.57;8.77;;;;;21.10;97838.00;;;;16572266;28;20651;-47
2022/09/14 05:28:51;;;;;;;8.73;7.83;;;;;21.20;97844.00;;;;16562666;28;20239;-48
2022/09/14 05:36:55;;;;;;;8.63;7.93;;;;;21.50;97855.00;;;;16582197;28;20226;-48
2022/09/14 05:44:57;;;;;;;9.33;8.10;;;;;21.20;97871.00;;;;16582943;28;20191;-47
2022/09/14 05:53:01;;;;;;;9.80;8.80;;;;;21.80;97853.00;;;;16587445;28;20227;-48
2022/09/14 06:01:08;;;;;;;8.07;7.47;;;;;21.80;97840.00;;;;16577746;28;20216;-46
2022/09/14 06:09:12;;;;;;;9.50;7.43;;;;;22.60;97821.00;;;;16576126;28;20226;-47
2022/09/14 06:17:15;;;;;;;10.37;7.60;;;;;21.50;97850.00;;;;16582608;28;20758;-47
2022/09/14 06:25:18;;;;;;;9.07;6.70;;;;;22.00;97838.00;;;;16583484;28;20203;-48
2022/09/14 06:33:21;;;;;;;7.80;6.67;;;;;22.40;97846.00;;;;16574095;28;20215;-47
2022/09/14 06:41:27;;;;;;;9.23;8.33;;;;;22.80;97852.00;;;;16584970;28;20282;-47
2022/09/14 06:49:30;;;;;;;10.33;8.67;;;;;22.70;97855.00;;;;16576893;28;20227;-47
2022/09/14 06:57:34;;;;;;;9.77;8.90;;;;;22.80;97831.00;;;;16575764;28;20226;-47
2022/09/14 07:05:36;;;;;;;7.93;7.33;;;;;22.70;97825.00;;;;16578121;28;20194;-49
2022/09/14 07:13:40;;;;;;;11.13;7.80;;;;;22.60;97832.00;;;;16579867;28;20560;-48
2022/09/14 07:21:43;;;;;;;5.43;5.03;;;;;23.20;97839.00;;;;16577063;28;20318;-48
2022/09/14 07:29:47;;;;;;;5.50;5.00;;;;;23.30;97843.00;;;;16584713;28;20598;-48
2022/09/14 07:37:49;;;;;;;6.00;3.80;;;;;23.60;97826.00;;;;16584008;28;20719;-48
2022/09/14 07:45:53;;;;;;;4.40;3.90;;;;;23.70;97844.00;;;;16583656;28;20203;-51
2022/09/14 07:53:56;;;;;;;7.60;4.23;;;;;24.10;97839.00;;;;16581963;28;20231;-48
2022/09/14 08:02:00;;;;;;;6.40;3.67;;;;;24.40;97852.00;;;;16581905;28;20227;-48
2022/09/14 08:10:02;;;;;;;3.53;3.23;;;;;24.90;97855.00;;;;16580521;28;20247;-48
2022/09/14 08:18:06;;;;;;;3.80;3.50;;;;;24.60;97848.00;;;;16580696;28;20235;-49
2022/09/14 08:26:09;;;;;;;4.90;3.73;;;;;25.20;97863.00;;;;16580137;28;20326;-50
2022/09/14 08:34:14;;;;;;;3.57;3.27;;;;;25.10;97891.00;;;;16571632;28;20234;-49
2022/09/14 08:42:19;;;;;;;5.97;3.60;;;;;25.10;97894.00;;;;16567070;28;20712;-49
2022/09/14 08:50:24;;;;;;;3.70;3.40;;;;;25.10;97921.00;;;;16566670;28;20273;-49
2022/09/14 08:58:32;;;;;;;4.27;3.30;;;;;25.20;97920.00;;;;16573210;28;20728;-49
2022/09/14 09:06:40;;;;;;;5.83;3.73;;;;;25.50;97903.00;;;;16573971;28;20187;-49
2022/09/14 09:14:47;;;;;;;4.13;3.40;;;;;25.70;97902.00;;;;16578159;28;20226;-49
2022/09/14 09:22:53;;;;;;;3.90;2.93;;;;;25.90;97922.00;;;;16561272;28;20408;-49
2022/09/14 09:30:58;;;;;;;3.13;2.87;;;;;25.90;97899.00;;;;16567106;28;20810;-49
2022/09/14 09:39:14;;;;;;;4.70;2.50;;;;;26.50;97889.00;;;;16585877;28;20227;-50
2022/09/14 09:47:16;;;;;;;3.67;2.90;;;;;27.10;97871.00;;;;16587151;28;20714;-49
2022/09/14 09:55:21;;;;;;;3.20;2.63;;;;;26.90;97860.00;;;;16586978;28;20215;-48
2022/09/14 10:03:31;;;;;;;4.57;3.10;;;;;27.10;97848.00;;;;16583556;28;20335;-49
2022/09/14 10:11:36;;;;;;;4.97;2.53;;;;;27.30;97839.00;;;;16584494;28;20859;-50
2022/09/14 10:19:39;;;;;;;3.30;2.57;;;;;27.60;97819.00;;;;16577185;28;20226;-50
2022/09/14 10:27:47;;;;;;;4.47;3.70;;;;;28.20;97816.00;;;;16587840;28;20230;-50
2022/09/14 10:35:54;;;;;;;3.67;2.70;;;;;27.50;97800.00;;;;16586305;28;20266;-50
2022/09/14 10:44:21;;;;;;;3.30;2.73;;;;;28.80;97783.00;;;;16581509;28;20225;-49
2022/09/14 10:52:30;;;;;;;3.03;2.67;;;;;28.40;97786.00;;;;16575193;28;20230;-50
2022/09/14 11:00:41;;;;;;;3.07;2.77;;;;;29.00;97752.00;;;;16585156;28;20301;-47
2022/09/14 11:08:46;;;;;;;3.40;2.90;;;;;29.30;97745.00;;;;16583333;28;20227;-49
2022/09/14 11:17:01;;;;;;;2.47;2.13;;;;;29.40;97739.00;;;;16582118;28;20227;-49
2022/09/14 11:25:09;;;;;;;3.97;2.60;;;;;29.30;97731.00;;;;16578003;28;20191;-48
2022/09/14 11:33:20;;;;;;;5.53;2.30;;;;;30.90;97726.00;;;;16574739;28;20298;-47
2022/09/14 11:41:27;;;;;;;3.97;2.20;;;;;29.10;97715.00;;;;16574710;28;20234;-47
2022/09/14 11:49:34;;;;;;;4.20;2.63;;;;;29.40;97717.00;;;;16575926;28;20228;-48
2022/09/14 11:57:37;;;;;;;2.83;1.70;;;;;30.20;97713.00;;;;16580522;28;20272;-48
2022/09/14 12:05:43;;;;;;;5.10;2.50;;;;;29.90;97721.00;;;;16575765;28;20219;-48
2022/09/14 12:13:45;;;;;;;10.27;2.60;;;;;29.30;97727.00;;;;16571610;28;20219;-47
2022/09/14 12:21:49;;;;;;;3.53;2.53;;;;;28.80;97736.00;;;;16578463;28;20226;-47
2022/09/14 12:29:51;;;;;;;3.20;2.60;;;;;28.40;97756.00;;;;16578327;28;20222;-48
2022/09/14 12:37:55;;;;;;;3.27;2.37;;;;;28.30;97757.00;;;;16572953;28;20579;-48
2022/09/14 12:46:02;;;;;;;4.83;2.90;;;;;28.00;97775.00;;;;16576603;28;20649;-49
2022/09/14 12:54:17;;;;;;;3.20;2.20;;;;;27.00;97800.00;;;;16575703;28;20248;-49
2022/09/14 13:02:50;;;;;;;3.77;2.50;;;;;25.40;97835.00;;;;16564168;28;20306;-49
2022/09/14 13:10:54;;;;;;;3.33;3.13;;;;;24.40;97833.00;;;;16568584;28;20687;-48
2022/09/14 13:19:01;;;;;;;4.40;3.83;;;;;24.20;97833.00;;;;16570591;28;20231;-49
2022/09/14 13:27:06;;;;;;;5.30;3.17;;;;;23.90;97850.00;;;;16577979;28;20253;-48
2022/09/14 13:35:17;;;;;;;9.63;3.20;;;;;23.60;97839.00;;;;16574555;28;20226;-48
2022/09/14 13:43:22;;;;;;;3.40;3.10;;;;;23.50;97836.00;;;;16572404;28;20330;-48
2022/09/14 13:51:26;;;;;;;3.90;3.60;;;;;23.60;97840.00;;;;16574565;28;20306;-49
2022/09/14 13:59:29;;;;;;;2.93;2.73;;;;;23.30;97837.00;;;;16585752;28;20226;-49
2022/09/14 14:07:34;;;;;;;3.10;2.40;;;;;23.10;97807.00;;;;16578245;28;20236;-48
2022/09/14 14:15:42;;;;;;;1.87;1.77;;;;;23.10;97798.00;;;;16579788;28;20234;-48
2022/09/14 14:23:45;;;;;;;3.10;2.00;;;;;23.60;97803.00;;;;16586972;28;20222;-49
2022/09/14 14:31:49;;;;;;;1.90;1.60;;;;;24.50;97805.00;;;;16577166;28;20225;-48
2022/09/14 14:39:51;;;;;;;1.80;1.70;;;;;24.20;97823.00;;;;16587489;28;20229;-49
2022/09/14 14:47:56;;;;;;;2.27;2.07;;;;;24.30;97854.00;;;;16585956;28;20219;-49
2022/09/14 14:55:58;;;;;;;2.20;2.00;;;;;23.80;97866.00;;;;16586754;28;20229;-49
2022/09/14 15:04:02;;;;;;;1.83;1.63;;;;;23.60;97839.00;;;;16584486;28;20211;-48
2022/09/14 15:12:05;;;;;;;1.93;1.40;;;;;23.00;97843.00;;;;16580732;28;20212;-48
2022/09/14 15:20:09;;;;;;;2.60;1.30;;;;;23.30;97831.00;;;;16573778;28;20846;-49
2022/09/14 15:28:12;;;;;;;2.33;1.50;;;;;23.30;97809.00;;;;16586543;28;20221;-48
2022/09/14 15:36:36;;;;;;;2.83;1.60;;;;;24.30;97777.00;;;;16581591;28;20211;-48
2022/09/14 15:44:38;;;;;;;1.30;1.20;;;;;24.60;97747.00;;;;16578364;28;20265;-48
2022/09/14 15:52:42;;;;;;;1.73;1.40;;;;;25.50;97719.00;;;;16583318;28;20714;-48
2022/09/14 16:00:44;;;;;;;1.37;1.13;;;;;25.80;97718.00;;;;16578593;28;20238;-49
2022/09/14 16:08:48;;;;;;;1.73;1.20;;;;;28.60;97694.00;;;;16569388;28;20219;-49
2022/09/14 16:16:51;;;;;;;1.40;0.73;;;;;27.50;97674.00;;;;16574708;28;20227;-49
2022/09/14 16:24:54;;;;;;;1.20;1.00;;;;;25.70;97674.00;;;;16580892;28;20557;-49
2022/09/14 16:32:57;;;;;;;1.47;1.10;;;;;25.50;97679.00;;;;16576428;28;20215;-49
2022/09/14 16:41:01;;;;;;;3.10;1.27;;;;;25.20;97729.00;;;;16562798;28;20586;-48
2022/09/14 16:49:05;;;;;;;2.67;1.60;;;;;25.50;97730.00;;;;16566280;28;20234;-48
2022/09/14 16:57:09;;;;;;;2.40;2.20;;;;;25.30;97737.00;;;;16562446;28;20223;-49
2022/09/14 17:05:11;;;;;;;4.63;1.13;;;;;24.70;97736.00;;;;16567580;28;20196;-49
2022/09/14 17:13:15;;;;;;;7.13;2.07;;;;;24.70;97732.00;;;;16565694;28;20254;-49
2022/09/14 17:21:19;;;;;;;2.83;1.70;;;;;24.20;97743.00;;;;16563143;28;20226;-48
2022/09/14 17:29:23;;;;;;;2.60;1.40;;;;;23.90;97757.00;;;;16576122;28;20626;-49
2022/09/14 17:37:25;;;;;;;1.90;1.47;;;;;24.20;97747.00;;;;16577392;28;20363;-49
2022/09/14 17:45:29;;;;;;;4.87;2.00;;;;;24.10;97748.00;;;;16575950;28;20203;-49
2022/09/14 17:53:32;;;;;;;4.13;3.60;;;;;24.10;97752.00;;;;16576278;28;20326;-49
2022/09/14 18:01:35;;;;;;;2.57;2.10;;;;;24.00;97754.00;;;;16578201;28;20219;-48
2022/09/14 18:09:39;;;;;;;4.33;3.57;;;;;23.70;97757.00;;;;16576382;28;20249;-49
2022/09/14 18:17:44;;;;;;;3.10;2.50;;;;;23.90;97768.00;;;;16574659;28;20767;-50
2022/09/14 18:25:47;;;;;;;4.07;2.40;;;;;23.30;97774.00;;;;16572443;28;20214;-49
2022/09/14 18:33:52;;;;;;;3.30;2.47;;;;;23.10;97783.00;;;;16568547;28;20676;-50
2022/09/14 18:41:55;;;;;;;3.00;1.90;;;;;22.80;97792.00;;;;16566122;28;20270;-49
2022/09/14 18:49:58;;;;;;;2.30;2.10;;;;;22.50;97780.00;;;;16567646;28;20217;-49
2022/09/14 18:58:01;;;;;;;3.40;2.23;;;;;22.30;97787.00;;;;16566442;28;20223;-48
2022/09/14 19:06:06;;;;;;;3.07;1.97;;;;;22.20;97792.00;;;;16571412;28;20329;-49
2022/09/14 19:14:11;;;;;;;5.63;2.40;;;;;22.00;97781.00;;;;16571084;28;20220;-49
2022/09/14 19:22:14;;;;;;;2.03;1.90;;;;;21.70;97790.00;;;;16598732;28;20635;-49
2022/09/14 19:30:17;;;;;;;2.70;2.03;;;;;21.80;97785.00;;;;16573760;28;20235;-50
2022/09/14 19:38:21;;;;;;;7.00;2.40;;;;;22.00;97768.00;;;;16569814;28;20815;-49
2022/09/14 19:46:23;;;;;;;2.37;2.17;;;;;22.10;97786.00;;;;16571202;28;20202;-49
2022/09/14 19:54:27;;;;;;;2.97;2.67;;;;;22.50;97801.00;;;;16568094;28;20738;-49
2022/09/14 20:02:30;;;;;;;4.27;2.50;;;;;22.50;97816.00;;;;16554476;28;20223;-49
2022/09/14 20:10:35;;;;;;;3.00;2.60;;;;;22.30;97823.00;;;;16562379;28;20225;-49
2022/09/14 20:18:38;;;;;;;3.53;2.93;;;;;22.20;97827.00;;;;16573508;28;20231;-49
2022/09/14 20:26:41;;;;;;;2.57;1.90;;;;;21.00;97830.00;;;;16570752;28;20218;-49
2022/09/14 20:34:44;;;;;;;6.83;2.63;;;;;20.80;97829.00;;;;16576918;28;20227;-49
2022/09/14 20:42:48;;;;;;;5.87;2.40;;;;;21.20;97828.00;;;;16580309;28;20233;-49
2022/09/14 20:50:53;;;;;;;4.47;3.30;;;;;21.40;97827.00;;;;16580633;28;20223;-49
2022/09/14 20:58:59;;;;;;;3.17;2.97;;;;;21.00;97824.00;;;;16581817;28;20589;-49
2022/09/14 21:07:01;;;;;;;4.07;2.80;;;;;20.90;97826.00;;;;16578934;28;20226;-48
2022/09/14 21:15:05;;;;;;;2.90;2.70;;;;;21.00;97816.00;;;;16580195;28;20219;-49
2022/09/14 21:23:08;;;;;;;2.63;2.43;;;;;21.40;97801.00;;;;16573893;28;20227;-49
2022/09/14 21:31:14;;;;;;;5.93;2.80;;;;;21.80;97805.00;;;;16580169;28;20359;-49
2022/09/14 21:39:18;;;;;;;4.83;3.30;;;;;21.70;97812.00;;;;16579582;28;20219;-49
2022/09/14 21:47:22;;;;;;;3.93;3.17;;;;;21.90;97797.00;;;;16578834;28;20219;-49
2022/09/14 21:55:27;;;;;;;4.17;2.80;;;;;21.80;97798.00;;;;16579150;28;20238;-49
2022/09/14 22:03:31;;;;;;;2.70;2.50;;;;;21.50;97799.00;;;;16572721;28;20233;-49
2022/09/14 22:11:36;;;;;;;3.03;2.80;;;;;21.40;97783.00;;;;16578526;28;20382;-49
2022/09/14 22:19:40;;;;;;;4.93;2.57;;;;;21.60;97771.00;;;;16587591;28;20223;-49
2022/09/14 22:27:43;;;;;;;4.23;3.03;;;;;21.20;97785.00;;;;16576884;28;20310;-49
2022/09/14 22:35:53;;;;;;;2.83;2.63;;;;;21.70;97806.00;;;;16582674;28;20234;-49
2022/09/14 22:43:56;;;;;;;4.27;2.80;;;;;20.70;97820.00;;;;16586046;28;20223;-50
2022/09/14 22:52:00;;;;;;;4.50;3.37;;;;;20.50;97841.00;;;;16587829;28;20230;-49
2022/09/14 23:00:03;;;;;;;5.83;3.60;;;;;21.00;97837.00;;;;16588264;28;20222;-50
2022/09/14 23:08:08;;;;;;;3.40;2.80;;;;;20.30;97844.00;;;;16584693;28;20246;-49
2022/09/14 23:16:12;;;;;;;3.60;3.30;;;;;20.20;97863.00;;;;16587086;28;20227;-49
2022/09/14 23:24:16;;;;;;;3.97;2.60;;;;;21.00;97866.00;;;;16580151;28;20239;-49
2022/09/14 23:32:19;;;;;;;6.13;2.87;;;;;20.90;97873.00;;;;16581215;28;20353;-49
2022/09/14 23:40:23;;;;;;;6.13;3.00;;;;;20.90;97873.00;;;;16585609;28;20285;-49
2022/09/14 23:48:26;;;;;;;4.00;3.10;;;;;20.80;97873.00;;;;16585919;28;20569;-49
2022/09/14 23:56:29;;;;;;;6.73;3.50;;;;;21.20;97861.00;;;;16578957;28;20231;-50
